Bendorf, Germania

08:38 AM CEST die 02o September, anno 2014 (GMT +0200)
IRHEINLA75 | Change Station
CLOSE
Current Station
Personal Weather Stations
Location: Neuwied, RHEINLAND-PFALZ
Elevation: 335 ft
Nearby Weather Stations

Elev 335 ft 50.46 °N, 7.46 °E | Updated 8 minutes ago

Scattered Clouds
Nubes Dispersae
53.6 °F
Feels Like 53.6 °F
N
0.0
Ventus Variabilis Ventus from Aquilo

Hodie
High -- | Low -- °F
--% Chance of Precip.
Yesterday
High -- | Low -- °F
Precip. -- in
6:45 AM 8:12 PM
Waxing Crescent, 48% visible
Pressio 30.18 in
Visibilitas 6.2 milia passuum
Clouds Nubes Dispersae 5000 ft
Nubes Dispersae 25000 ft
Frigus in quo Ros apparet 52 °F
Umor 93%
Rainfall 0.00 in
Snow Depth Not available.
UV 1 out of 12
Pollen Not available.
Air Quality Not available.
Flu Activity Not available.
METAR ETSB 020620Z 34003KT 9999 SCT050 SCT250 13/10 Q1022 BLU+BLU+ TEMPO GRN

More Conditions Fewer Conditions

Pressio 30.18 in
Visibilitas 6.2 milia passuum
Clouds Nubes Dispersae 5000 ft
Nubes Dispersae 25000 ft
Frigus in quo Ros apparet 52 °F
Umor 93%
Rainfall 0.00 in
Snow Depth Not available.
UV 1 out of 12
Pollen Not available.
Air Quality Not available.
Flu Activity Not available.
METAR ETSB 020620Z 34003KT 9999 SCT050 SCT250 13/10 Q1022 BLU+BLU+ TEMPO GRN

More Conditions Fewer Conditions

10-Day Weather Forecast

Almanac

Astronomy

Sep. 02, 2014 Rise Set
Actual Time 6:45 AM CEST 8:12 PM CEST
Civil Twilight 6:11 AM CEST 8:46 PM CEST
Nautical Twilight 5:29 AM CEST 9:27 PM CEST
Astronomical Twilight 4:44 AM CEST 10:12 PM CEST
Moon 2:57 PM CEST Nulla Occasus Lunae
Length Of Visible Light 14h 35m
Length of Day
13h 27m
Tomorrow will be 3m 42s shorter.
Waxing Crescent, 48% of the Moon is Illuminated
Hodie
Waxing Crescent
Sep 2
First Quarter
Sep 8
Full
Sep 15
Last Quarter
Sep 24
New

Yesterday's Extremes

Country Highs Country Lows

Community

WunderPhotos

Upload Photos

1,749,589 photos uploaded!

WunderBlogs® & News

Nearby

Snow Depth

Not available.

Earthquake Activity

City Distance Mag. Time & Date
No recent earthquake activity has been reported nearby.
Minimum magnitude displayed is 2.5.

Coastal Water Temperatures

Locus Calor
No Stations Reporting

Nearby Weather Stations